Aviation Digital Data Service (ADDS)

Output produced by METARs form (0152 UTC 29 August 2016)
found at http://aviationweather.gov/adds/metars/
 
KFRG 290053Z 17006KT 10SM CLR 24/19 A3017 RMK AO2 SLP215 T02390189
KISP 290056Z 17006KT 10SM SCT250 23/18 A3016 RMK AO2 SLP212 T02330178 $
KISP 282340Z 2900/2924 17006KT P6SM FEW250 
     FM290900 23004KT P6SM FEW050 SCT250 
     FM291400 28007KT P6SM SCT070 BKN250 
     FM291700 27011G17KT P6SM FEW220 SCT250
       
KJFK 282340Z 2900/3006 16008KT P6SM FEW250 
     FM290400 20007KT P6SM FEW250 
     FM291100 26007KT P6SM SCT050 BKN250 
     FM291700 28011G19KT P6SM SCT250 
     FM300000 28008KT P6SM FEW250 
     FM300200 32005KT P6SM FEW250
       
KBDR 282340Z 2900/2924 18008KT P6SM FEW250 
     FM290500 21007KT P6SM SCT250 
     FM290800 23008KT P6SM SCT050 BKN250 
     FM291300 26009KT P6SM SCT090 BKN250 
     FM292000 29010G17KT P6SM FEW250